createdAt,value
2018-02-04T00:01:02.932Z,1.22
2018-02-04T00:02:30.876Z,1.23
2018-02-04T00:03:56.971Z,1.21
2018-02-04T00:05:24.082Z,1.23
2018-02-04T00:06:52.228Z,1.27
2018-02-04T00:08:17.910Z,1.32
2018-02-04T00:09:44.942Z,1.37
2018-02-04T00:11:12.193Z,1.42
2018-02-04T00:12:39.874Z,1.44
2018-02-04T00:14:08.893Z,1.45
2018-02-04T00:15:33.988Z,1.44
2018-02-04T00:16:59.826Z,1.44
2018-02-04T00:18:26.687Z,1.45
2018-02-04T00:19:53.943Z,1.46
2018-02-04T00:21:21.931Z,1.47
2018-02-04T00:22:49.070Z,1.48
2018-02-04T00:24:15.416Z,1.49
2018-02-04T00:25:43.646Z,1.49
2018-02-04T00:27:10.673Z,1.49
2018-02-04T00:28:36.820Z,1.50
2018-02-04T00:30:04.755Z,1.50
2018-02-04T00:31:31.913Z,1.49
2018-02-04T00:32:58.190Z,1.50
2018-02-04T00:34:26.259Z,1.51
2018-02-04T00:35:53.509Z,1.52
2018-02-04T00:37:20.576Z,1.51
2018-02-04T00:38:47.636Z,1.37
2018-02-04T00:40:13.792Z,1.21
2018-02-04T00:41:40.955Z,1.14
2018-02-04T00:43:08.063Z,1.08
2018-02-04T00:44:35.008Z,1.04
2018-02-04T00:46:01.908Z,1.02
2018-02-04T00:47:28.722Z,1.04
2018-02-04T00:48:56.856Z,1.08
2018-02-04T00:50:22.877Z,1.05
2018-02-04T00:51:50.103Z,1.04
2018-02-04T00:53:17.291Z,1.09
2018-02-04T00:54:45.300Z,1.13
2018-02-04T00:56:11.375Z,1.10
2018-02-04T00:57:38.543Z,1.08
2018-02-04T00:59:06.664Z,1.09
2018-02-04T01:00:33.825Z,1.13
2018-02-04T01:01:59.522Z,1.16
2018-02-04T01:03:27.900Z,1.17
2018-02-04T01:04:53.987Z,1.15
2018-02-04T01:06:22.104Z,1.11
2018-02-04T01:07:48.197Z,1.11
2018-02-04T01:09:16.294Z,1.12
2018-02-04T01:10:43.331Z,1.11
2018-02-04T01:12:10.364Z,1.11
2018-02-04T01:13:36.357Z,1.11
2018-02-04T01:15:04.742Z,1.11
2018-02-04T01:16:30.650Z,1.10
2018-02-04T01:17:57.797Z,1.07
2018-02-04T01:19:25.950Z,1.05
2018-02-04T01:20:52.092Z,1.02
2018-02-04T01:22:19.138Z,0.99
2018-02-04T01:23:46.028Z,0.97
2018-02-04T01:25:14.035Z,0.96
2018-02-04T01:26:41.034Z,0.94
2018-02-04T01:28:07.142Z,0.93
2018-02-04T01:29:35.079Z,0.95
2018-02-04T01:31:02.208Z,0.95
2018-02-04T01:32:28.254Z,0.96
2018-02-04T01:33:56.211Z,0.96
2018-02-04T01:35:23.207Z,0.92
2018-02-04T01:36:50.515Z,0.89
2018-02-04T01:38:17.506Z,0.87
2018-02-04T01:39:44.632Z,0.86
2018-02-04T01:41:10.653Z,0.85
2018-02-04T01:42:37.613Z,0.84
2018-02-04T01:44:04.590Z,0.83
2018-02-04T01:45:31.617Z,0.81
2018-02-04T01:46:59.799Z,0.78
2018-02-04T01:48:25.710Z,0.74
2018-02-04T01:49:52.827Z,0.72
2018-02-04T01:51:20.985Z,0.71
2018-02-04T01:52:48.279Z,0.68
2018-02-04T01:54:15.148Z,0.66
2018-02-04T01:55:42.177Z,0.65
2018-02-04T01:57:09.371Z,0.62
2018-02-04T01:58:36.155Z,0.62
2018-02-04T02:00:03.238Z,0.62
2018-02-04T02:01:30.585Z,0.64
2018-02-04T02:02:57.739Z,0.65
2018-02-04T02:04:24.640Z,0.63
2018-02-04T02:05:51.863Z,0.61
2018-02-04T02:07:18.639Z,0.59
2018-02-04T02:08:44.715Z,0.57
2018-02-04T02:11:39.683Z,0.53
2018-02-04T02:13:05.714Z,0.52
2018-02-04T02:14:33.573Z,0.50
2018-02-04T02:16:00.420Z,0.49
2018-02-04T02:17:27.598Z,0.48
2018-02-04T02:18:54.724Z,0.49
2018-02-04T02:20:20.866Z,0.46
2018-02-04T02:21:47.809Z,0.47
2018-02-04T02:23:15.882Z,0.47
2018-02-04T02:24:42.062Z,0.45
2018-02-04T02:26:10.086Z,0.46
2018-02-04T02:27:36.062Z,0.45
2018-02-04T02:29:03.908Z,0.45
2018-02-04T02:30:30.934Z,0.43
2018-02-04T02:31:56.801Z,0.43
2018-02-04T02:33:24.782Z,0.43
2018-02-04T02:34:50.638Z,0.44
2018-02-04T02:36:18.496Z,0.42
2018-02-04T02:37:44.490Z,0.41
2018-02-04T02:39:12.534Z,0.39
2018-02-04T02:40:38.474Z,0.38
2018-02-04T02:42:05.228Z,0.38
2018-02-04T02:43:32.209Z,0.36
2018-02-04T02:45:00.399Z,0.37
2018-02-04T02:46:27.342Z,0.37
2018-02-04T02:47:54.552Z,0.36
2018-02-04T02:49:20.343Z,0.34
2018-02-04T02:50:48.391Z,0.30
2018-02-04T02:52:15.166Z,0.27
2018-02-04T02:53:41.322Z,0.25
2018-02-04T02:55:08.174Z,0.22
2018-02-04T02:56:35.142Z,0.20
2018-02-04T02:58:02.322Z,0.19
2018-02-04T02:59:30.450Z,0.17
2018-02-04T03:00:56.464Z,0.15
2018-02-04T03:02:23.221Z,0.13
2018-02-04T03:03:51.296Z,0.12
2018-02-04T03:05:18.515Z,0.08
2018-02-04T03:06:45.491Z,0.05
2018-02-04T03:08:12.665Z,0.01
2018-02-04T03:09:39.609Z,-0.02
2018-02-04T03:11:06.737Z,-0.05
2018-02-04T03:12:33.758Z,-0.07
2018-02-04T03:14:00.752Z,-0.07
2018-02-04T03:15:26.737Z,-0.08
2018-02-04T03:16:54.711Z,-0.08
2018-02-04T03:18:21.992Z,-0.10
2018-02-04T03:19:49.123Z,-0.14
2018-02-04T03:21:15.051Z,-0.15
2018-02-04T03:22:42.919Z,-0.20
2018-02-04T03:24:09.976Z,-0.24
2018-02-04T03:25:37.087Z,-0.26
2018-02-04T03:27:03.860Z,-0.26
2018-02-04T03:28:30.886Z,-0.23
2018-02-04T03:29:57.895Z,-0.21
2018-02-04T03:31:25.155Z,-0.21
2018-02-04T03:32:51.052Z,-0.24
2018-02-04T03:34:18.791Z,-0.30
2018-02-04T03:35:45.767Z,-0.34
2018-02-04T03:37:12.762Z,-0.35
2018-02-04T03:38:39.543Z,-0.36
2018-02-04T03:40:06.614Z,-0.36
2018-02-04T03:41:32.739Z,-0.35
2018-02-04T03:43:00.815Z,-0.31
2018-02-04T03:44:28.109Z,-0.26
2018-02-04T03:45:54.984Z,-0.26
2018-02-04T03:47:22.053Z,-0.28
2018-02-04T03:48:49.246Z,-0.29
2018-02-04T03:50:16.183Z,-0.25
2018-02-04T03:51:42.339Z,-0.20
2018-02-04T03:53:10.291Z,-0.16
2018-02-04T03:54:37.594Z,-0.12
2018-02-04T03:56:04.314Z,-0.07
2018-02-04T03:57:30.353Z,-0.05
2018-02-04T03:58:58.498Z,-0.01
2018-02-04T04:00:24.611Z,0.02
2018-02-04T04:01:52.464Z,0.04
2018-02-04T04:03:19.675Z,0.07
2018-02-04T04:04:46.654Z,0.07
2018-02-04T04:06:13.739Z,0.08
2018-02-04T04:07:39.748Z,0.09
2018-02-04T04:09:07.697Z,0.11
2018-02-04T04:10:34.780Z,0.13
2018-02-04T04:12:01.987Z,0.13
2018-02-04T04:13:29.036Z,0.14
2018-02-04T04:14:56.208Z,0.16
2018-02-04T04:16:23.212Z,0.18
2018-02-04T04:17:50.332Z,0.18
2018-02-04T04:19:16.644Z,0.15
2018-02-04T04:20:44.378Z,0.13
2018-02-04T04:22:11.337Z,0.11
2018-02-04T04:23:38.323Z,0.09
2018-02-04T04:25:05.260Z,0.06
2018-02-04T04:26:32.202Z,0.05
2018-02-04T04:27:59.447Z,0.02
2018-02-04T04:29:26.408Z,0.01
2018-02-04T04:30:52.475Z,0.00
2018-02-04T04:32:20.645Z,0.00
2018-02-04T04:33:46.850Z,0.02
2018-02-04T04:35:14.870Z,0.02
2018-02-04T04:36:41.852Z,0.03
2018-02-04T04:38:08.747Z,0.05
2018-02-04T04:39:35.762Z,0.04
2018-02-04T04:41:04.797Z,0.03
2018-02-04T04:42:29.602Z,0.02
2018-02-04T04:43:55.324Z,-0.01
2018-02-04T04:45:22.287Z,-0.03
2018-02-04T04:46:50.408Z,-0.04
2018-02-04T04:48:17.429Z,-0.03
2018-02-04T04:49:44.621Z,-0.01
2018-02-04T04:51:11.406Z,0.00
2018-02-04T04:52:37.429Z,-0.01
2018-02-04T04:54:05.314Z,-0.03
2018-02-04T04:55:32.394Z,-0.06
2018-02-04T04:56:59.627Z,-0.08
2018-02-04T04:58:25.419Z,-0.10
2018-02-04T04:59:53.343Z,-0.18
2018-02-04T05:01:20.558Z,-0.18
2018-02-04T05:02:47.757Z,-0.18
2018-02-04T05:04:13.725Z,-0.17
2018-02-04T05:05:40.703Z,-0.18
2018-02-04T05:07:07.889Z,-0.18
2018-02-04T05:08:35.874Z,-0.18
2018-02-04T05:10:04.978Z,-0.16
2018-02-04T05:11:29.796Z,-0.14
2018-02-04T05:12:57.054Z,-0.13
2018-02-04T05:14:23.208Z,-0.14
2018-02-04T05:15:50.250Z,-0.13
2018-02-04T05:17:17.548Z,-0.13
2018-02-04T05:18:44.490Z,-0.13
2018-02-04T05:20:11.733Z,-0.13
2018-02-04T05:21:39.677Z,-0.14
2018-02-04T05:23:06.611Z,-0.18
2018-02-04T05:24:32.707Z,-0.15
2018-02-04T05:26:01.068Z,-0.12
2018-02-04T05:27:27.232Z,-0.10
2018-02-04T05:28:55.459Z,-0.14
2018-02-04T05:30:22.527Z,-0.20
2018-02-04T05:31:48.622Z,-0.23
2018-02-04T05:33:16.588Z,-0.25
2018-02-04T05:34:43.475Z,-0.24
2018-02-04T05:36:09.516Z,-0.27
2018-02-04T05:37:36.246Z,-0.30
2018-02-04T05:39:03.306Z,-0.28
2018-02-04T05:40:31.184Z,-0.30
2018-02-04T05:41:58.418Z,-0.32
2018-02-04T05:43:25.707Z,-0.36
2018-02-04T05:44:52.779Z,-0.41
2018-02-04T05:46:19.946Z,-0.42
2018-02-04T05:47:46.961Z,-0.45
2018-02-04T05:49:14.030Z,-0.49
2018-02-04T05:50:40.940Z,-0.52
2018-02-04T05:52:06.975Z,-0.53
2018-02-04T05:53:34.970Z,-0.55
2018-02-04T05:55:01.973Z,-0.54
2018-02-04T05:56:27.949Z,-0.55
2018-02-04T05:57:54.907Z,-0.53
2018-02-04T05:59:23.117Z,-0.51
2018-02-04T06:00:50.545Z,-0.47
2018-02-04T06:02:17.324Z,-0.41
2018-02-04T06:03:43.351Z,-0.37
2018-02-04T06:05:10.392Z,-0.35
2018-02-04T06:06:38.296Z,-0.30
2018-02-04T06:08:04.147Z,-0.24
2018-02-04T06:09:31.382Z,-0.20
2018-02-04T06:10:58.430Z,-0.17
2018-02-04T06:12:25.983Z,-0.12
2018-02-04T06:13:52.985Z,-0.06
2018-02-04T06:15:19.228Z,0.00
2018-02-04T06:16:47.124Z,0.04
2018-02-04T06:18:13.832Z,0.06
2018-02-04T06:19:39.841Z,0.10
2018-02-04T06:21:06.948Z,0.14
2018-02-04T06:22:33.923Z,0.18
2018-02-04T06:24:01.756Z,0.22
2018-02-04T06:25:28.947Z,0.24
2018-02-04T06:26:55.014Z,0.25
2018-02-04T06:28:22.075Z,0.25
2018-02-04T06:29:50.077Z,0.25
2018-02-04T06:31:17.269Z,0.27
2018-02-04T06:32:43.054Z,0.31
2018-02-04T06:34:11.001Z,0.35
2018-02-04T06:35:37.043Z,0.38
2018-02-04T06:37:03.870Z,0.44
2018-02-04T06:38:31.774Z,0.48
2018-02-04T06:39:58.741Z,0.52
2018-02-04T06:41:25.787Z,0.54
2018-02-04T06:42:52.991Z,0.57
2018-02-04T06:44:19.028Z,0.59
2018-02-04T06:45:46.909Z,0.60
2018-02-04T06:47:14.107Z,0.61
2018-02-04T06:48:40.229Z,0.62
2018-02-04T06:50:07.478Z,0.63
2018-02-04T06:51:34.310Z,0.64
2018-02-04T06:53:01.560Z,0.64
2018-02-04T06:54:28.424Z,0.63
2018-02-04T06:55:55.305Z,0.64
2018-02-04T06:57:22.461Z,0.66
2018-02-04T06:58:49.566Z,0.67
2018-02-04T07:00:16.685Z,0.68
2018-02-04T07:01:43.908Z,0.69
2018-02-04T07:03:10.874Z,0.69
2018-02-04T07:04:37.957Z,0.71
2018-02-04T07:06:04.935Z,0.71
2018-02-04T07:07:33.105Z,0.73
2018-02-04T07:09:00.180Z,0.74
2018-02-04T07:10:27.203Z,0.74
2018-02-04T07:11:54.456Z,0.75
2018-02-04T07:13:20.659Z,0.77
2018-02-04T07:14:48.637Z,0.78
2018-02-04T07:16:15.637Z,0.80
2018-02-04T07:17:41.859Z,0.82
2018-02-04T07:19:08.974Z,0.85
2018-02-04T07:20:36.022Z,0.87
2018-02-04T07:22:04.261Z,0.89
2018-02-04T07:23:30.269Z,0.91
2018-02-04T07:24:58.271Z,0.94
2018-02-04T07:26:24.466Z,0.96
2018-02-04T07:27:52.504Z,0.98
2018-02-04T07:29:19.848Z,0.98
2018-02-04T07:30:47.006Z,0.99
2018-02-04T07:32:13.794Z,0.98
2018-02-04T07:33:40.819Z,0.99
2018-02-04T07:35:06.938Z,1.00
2018-02-04T07:36:33.646Z,1.02
2018-02-04T07:38:00.858Z,1.05
2018-02-04T07:39:28.885Z,1.06
2018-02-04T07:40:55.045Z,1.04
2018-02-04T07:42:22.798Z,1.04
2018-02-04T07:45:17.115Z,1.03
2018-02-04T07:46:43.033Z,1.05
2018-02-04T07:48:11.143Z,1.07
2018-02-04T07:49:38.149Z,1.03
2018-02-04T07:51:05.156Z,1.01
2018-02-04T07:52:31.215Z,0.96
2018-02-04T07:53:59.224Z,0.94
2018-02-04T07:55:25.236Z,0.95
2018-02-04T07:56:53.425Z,0.98
2018-02-04T07:58:20.717Z,1.00
2018-02-04T07:59:47.592Z,1.05
2018-02-04T08:01:14.887Z,1.09
2018-02-04T08:02:42.027Z,1.14
2018-02-04T08:04:08.121Z,1.16
2018-02-04T08:05:36.089Z,1.20
2018-02-04T08:07:03.078Z,1.22
2018-02-04T08:08:29.039Z,1.26
2018-02-04T08:09:57.261Z,1.29
2018-02-04T08:11:24.420Z,1.32
2018-02-04T08:12:50.363Z,1.34
2018-02-04T08:14:18.449Z,1.36
2018-02-04T08:15:44.363Z,1.38
2018-02-04T08:17:12.565Z,1.39
2018-02-04T08:18:38.611Z,1.38
2018-02-04T08:20:06.478Z,1.41
2018-02-04T08:21:32.521Z,1.43
2018-02-04T08:23:00.582Z,1.43
2018-02-04T08:24:26.577Z,1.43
2018-02-04T08:25:53.751Z,1.45
2018-02-04T08:27:20.832Z,1.42
2018-02-04T08:28:48.975Z,1.40
2018-02-04T08:30:16.138Z,1.42
2018-02-04T08:31:42.081Z,1.44
2018-02-04T08:33:09.982Z,1.47
2018-02-04T08:34:36.728Z,1.51
2018-02-04T08:36:02.483Z,1.54
2018-02-04T08:37:29.539Z,1.54
2018-02-04T08:38:57.746Z,1.56
2018-02-04T08:40:24.655Z,1.59
2018-02-04T08:41:50.572Z,1.62
2018-02-04T08:43:18.669Z,1.56
2018-02-04T08:44:45.701Z,1.57
2018-02-04T08:46:11.588Z,1.60
2018-02-04T08:47:39.651Z,1.54
2018-02-04T08:49:05.642Z,1.51
2018-02-04T08:50:32.952Z,1.55
2018-02-04T08:52:01.142Z,1.59
2018-02-04T08:53:28.080Z,1.61
2018-02-04T08:54:55.100Z,1.61
2018-02-04T08:56:21.144Z,1.62
2018-02-04T08:57:49.340Z,1.56
2018-02-04T08:59:16.408Z,1.46
2018-02-04T09:00:43.456Z,1.42
2018-02-04T09:02:10.406Z,1.43
2018-02-04T09:03:37.483Z,1.45
2018-02-04T09:05:03.661Z,1.44
2018-02-04T09:06:31.803Z,1.42
2018-02-04T09:07:58.965Z,1.44
2018-02-04T09:09:25.063Z,1.49
2018-02-04T09:10:53.118Z,1.51
2018-02-04T09:12:19.207Z,1.55
2018-02-04T09:13:47.442Z,1.56
2018-02-04T09:15:14.606Z,1.57
2018-02-04T09:16:41.516Z,1.61
2018-02-04T09:18:07.504Z,1.64
2018-02-04T09:19:35.548Z,1.67
2018-02-04T09:21:02.747Z,1.71
2018-02-04T09:22:28.887Z,1.76
2018-02-04T09:23:57.066Z,1.80
2018-02-04T09:25:23.052Z,1.83
2018-02-04T09:26:49.652Z,1.87
2018-02-04T09:28:17.789Z,1.90
2018-02-04T09:29:43.350Z,1.93
2018-02-04T09:31:10.424Z,1.96
2018-02-04T09:32:37.610Z,1.97
2018-02-04T09:34:04.669Z,1.99
2018-02-04T09:35:31.876Z,2.01
2018-02-04T09:36:59.092Z,2.04
2018-02-04T09:38:27.409Z,2.06
2018-02-04T09:39:54.452Z,2.08
2018-02-04T09:41:21.020Z,2.08
2018-02-04T09:42:48.197Z,2.04
2018-02-04T09:45:40.795Z,2.06
2018-02-04T09:47:06.645Z,2.09
2018-02-04T09:48:34.536Z,2.10
2018-02-04T09:50:01.809Z,2.11
2018-02-04T09:51:27.939Z,2.08
2018-02-04T09:52:55.281Z,2.03
2018-02-04T09:54:22.138Z,2.00
2018-02-04T09:55:50.271Z,2.02
2018-02-04T09:57:17.432Z,2.06
2018-02-04T09:58:44.707Z,2.06
2018-02-04T10:00:10.841Z,2.02
2018-02-04T10:01:38.788Z,2.04
2018-02-04T10:03:05.813Z,2.08
2018-02-04T10:04:32.789Z,2.13
2018-02-04T10:05:59.896Z,2.18
2018-02-04T10:07:26.961Z,2.16
2018-02-04T10:08:53.144Z,2.17
2018-02-04T10:10:21.466Z,2.20
2018-02-04T10:11:48.353Z,2.23
2018-02-04T10:13:14.520Z,2.23
2018-02-04T10:14:42.756Z,2.26
2018-02-04T10:16:10.011Z,2.30
2018-02-04T10:17:36.995Z,2.34
2018-02-04T10:19:03.180Z,2.38
2018-02-04T10:20:31.493Z,2.40
2018-02-04T10:21:57.392Z,2.31
2018-02-04T10:23:24.504Z,2.32
2018-02-04T10:24:52.687Z,2.36
2018-02-04T10:26:18.996Z,2.41
2018-02-04T10:27:46.223Z,2.44
2018-02-04T10:29:14.235Z,2.49
2018-02-04T10:30:41.319Z,2.44
2018-02-04T10:32:07.129Z,2.40
2018-02-04T10:33:35.078Z,2.43
2018-02-04T10:35:02.110Z,2.51
2018-02-04T10:36:29.388Z,2.46
2018-02-04T10:37:56.507Z,2.46
2018-02-04T10:39:23.817Z,2.52
2018-02-04T10:40:50.137Z,2.53
2018-02-04T10:42:17.349Z,2.53
2018-02-04T10:43:44.559Z,2.56
2018-02-04T10:45:12.709Z,2.54
2018-02-04T10:46:39.844Z,2.46
2018-02-04T10:48:05.650Z,2.43
2018-02-04T10:49:32.778Z,2.46
2018-02-04T10:50:59.925Z,2.51
2018-02-04T10:52:28.029Z,2.51
2018-02-04T10:53:55.415Z,2.51
2018-02-04T10:55:22.595Z,2.54
2018-02-04T10:56:49.549Z,2.58
2018-02-04T10:58:15.805Z,2.56
2018-02-04T10:59:43.924Z,2.59
2018-02-04T11:01:10.897Z,2.60
2018-02-04T11:02:36.989Z,2.58
2018-02-04T11:04:04.955Z,2.54
2018-02-04T11:05:32.218Z,2.48
2018-02-04T11:06:58.418Z,2.53
2018-02-04T11:08:26.604Z,2.58
2018-02-04T11:09:53.934Z,2.55
2018-02-04T11:11:20.967Z,2.51
2018-02-04T11:12:47.095Z,2.45
2018-02-04T11:14:14.311Z,2.46
2018-02-04T11:15:42.479Z,2.49
2018-02-04T11:17:08.588Z,2.43
2018-02-04T11:18:35.534Z,2.32
2018-02-04T11:20:02.679Z,2.26
2018-02-04T11:21:29.651Z,2.26
2018-02-04T11:22:56.995Z,2.26
2018-02-04T11:24:24.272Z,2.25
2018-02-04T11:25:52.288Z,2.24
2018-02-04T11:27:19.494Z,2.17
2018-02-04T11:28:46.565Z,2.16
2018-02-04T11:30:13.748Z,2.15
2018-02-04T11:31:41.006Z,2.15
2018-02-04T11:33:07.097Z,2.17
2018-02-04T11:34:33.810Z,2.17
2018-02-04T11:36:01.072Z,2.17
2018-02-04T11:37:28.037Z,2.16
2018-02-04T11:38:55.761Z,2.16
2018-02-04T11:40:21.790Z,2.15
2018-02-04T11:41:50.022Z,2.15
2018-02-04T11:43:15.893Z,2.14
2018-02-04T11:44:44.085Z,2.12
2018-02-04T11:46:10.139Z,2.11
2018-02-04T11:47:38.353Z,2.09
2018-02-04T11:49:05.195Z,2.10
2018-02-04T11:50:32.361Z,2.10
2018-02-04T11:51:59.647Z,2.11
2018-02-04T11:53:26.387Z,2.11
2018-02-04T11:54:53.536Z,2.12
2018-02-04T11:56:19.492Z,2.13
2018-02-04T11:57:47.548Z,2.15
2018-02-04T11:59:13.254Z,2.14
2018-02-04T12:00:41.363Z,2.14
2018-02-04T12:02:07.230Z,2.14
2018-02-04T12:03:34.198Z,2.12
2018-02-04T12:05:02.416Z,2.12
2018-02-04T12:06:29.021Z,2.11
2018-02-04T12:07:56.215Z,2.10
2018-02-04T12:09:22.399Z,2.08
2018-02-04T12:10:50.631Z,2.06
2018-02-04T12:12:16.861Z,2.05
2018-02-04T12:13:44.919Z,2.02
2018-02-04T12:15:11.725Z,1.97
2018-02-04T12:16:37.810Z,1.93
2018-02-04T12:18:04.897Z,1.92
2018-02-04T12:19:33.005Z,1.89
2018-02-04T12:21:00.310Z,1.87
2018-02-04T12:22:27.370Z,1.85
2018-02-04T12:23:53.485Z,1.80
2018-02-04T12:25:20.673Z,1.79
2018-02-04T12:26:48.890Z,1.80
2018-02-04T12:28:15.970Z,1.79
2018-02-04T12:29:43.185Z,1.79
2018-02-04T12:31:09.300Z,1.79
2018-02-04T12:32:36.479Z,1.79
2018-02-04T12:34:04.747Z,1.79
2018-02-04T12:35:30.800Z,1.79
2018-02-04T12:36:57.858Z,1.80
2018-02-04T12:38:25.126Z,1.80
2018-02-04T12:39:52.181Z,1.80
2018-02-04T12:41:19.388Z,1.79
2018-02-04T12:42:46.659Z,1.78
2018-02-04T12:44:13.671Z,1.78
2018-02-04T12:45:40.728Z,1.79
2018-02-04T12:47:07.840Z,1.79
2018-02-04T12:48:34.896Z,1.80
2018-02-04T12:50:03.007Z,1.81
2018-02-04T12:51:29.263Z,1.82
2018-02-04T12:52:56.435Z,1.83
2018-02-04T12:54:23.338Z,1.84
2018-02-04T12:55:51.662Z,1.84
2018-02-04T12:57:17.595Z,1.85
2018-02-04T12:58:45.822Z,1.87
2018-02-04T13:00:11.955Z,1.88
2018-02-04T13:01:39.189Z,1.88
2018-02-04T13:03:06.260Z,1.89
2018-02-04T13:04:34.358Z,1.90
2018-02-04T13:06:00.736Z,1.91
2018-02-04T13:07:28.911Z,1.92
2018-02-04T13:09:00.963Z,1.92
2018-02-04T13:10:22.044Z,1.92
2018-02-04T13:11:50.145Z,1.94
2018-02-04T13:13:16.374Z,1.97
2018-02-04T13:14:44.406Z,1.99
2018-02-04T13:16:11.622Z,2.02
2018-02-04T13:17:37.511Z,2.05
2018-02-04T13:19:04.714Z,2.08
2018-02-04T13:20:32.663Z,2.10
2018-02-04T13:21:59.936Z,2.13
2018-02-04T13:23:26.095Z,2.15
2018-02-04T13:24:53.237Z,2.16
2018-02-04T13:26:21.402Z,2.18
2018-02-04T13:27:48.628Z,2.20
2018-02-04T13:29:14.628Z,2.21
2018-02-04T13:30:42.716Z,2.23
2018-02-04T13:32:09.791Z,2.23
2018-02-04T13:33:36.789Z,2.23
2018-02-04T13:35:02.840Z,2.23
2018-02-04T13:36:30.099Z,2.23
2018-02-04T13:37:58.104Z,2.23
2018-02-04T13:39:24.292Z,2.25
2018-02-04T13:40:52.420Z,2.25
2018-02-04T13:42:18.672Z,2.26
2018-02-04T13:43:46.732Z,2.26
2018-02-04T13:45:14.086Z,2.27
2018-02-04T13:46:41.268Z,2.26
2018-02-04T13:48:07.315Z,2.24
2018-02-04T13:49:35.157Z,2.24
2018-02-04T13:51:02.458Z,2.23
2018-02-04T13:52:29.633Z,2.24
2018-02-04T13:53:56.789Z,2.25
2018-02-04T13:55:23.847Z,2.26
2018-02-04T13:56:50.990Z,2.26
2018-02-04T13:58:17.101Z,2.27
2018-02-04T13:59:45.314Z,2.28
2018-02-04T14:01:11.359Z,2.28
2018-02-04T14:02:39.395Z,2.29
2018-02-04T14:04:06.469Z,2.28
2018-02-04T14:05:32.712Z,2.28
2018-02-04T14:06:59.984Z,2.29
2018-02-04T14:08:27.085Z,2.28
2018-02-04T14:09:54.228Z,2.28
2018-02-04T14:11:22.513Z,2.28
2018-02-04T14:12:48.403Z,2.27
2018-02-04T14:14:15.650Z,2.26
2018-02-04T14:15:43.556Z,2.26
2018-02-04T14:17:09.612Z,2.25
2018-02-04T14:18:36.670Z,2.25
2018-02-04T14:20:03.846Z,2.26
2018-02-04T14:21:32.029Z,2.26
2018-02-04T14:22:59.115Z,2.27
2018-02-04T14:24:26.147Z,2.27
2018-02-04T14:25:53.464Z,2.27
2018-02-04T14:27:20.575Z,2.27
2018-02-04T14:28:46.451Z,2.26
2018-02-04T14:30:14.529Z,2.26
2018-02-04T14:31:40.553Z,2.26
2018-02-04T14:33:07.698Z,2.26
2018-02-04T14:34:34.621Z,2.26
2018-02-04T14:36:01.699Z,2.26
2018-02-04T14:37:29.756Z,2.27
2018-02-04T14:38:56.967Z,2.29
2018-02-04T14:40:22.646Z,2.28
2018-02-04T14:41:49.874Z,2.30
2018-02-04T14:43:16.960Z,2.31
2018-02-04T14:44:43.932Z,2.32
2018-02-04T14:46:11.734Z,2.33
2018-02-04T14:47:37.676Z,2.35
2018-02-04T14:49:05.456Z,2.37
2018-02-04T14:50:31.696Z,2.38
2018-02-04T14:51:59.758Z,2.39
2018-02-04T14:53:26.158Z,2.39
2018-02-04T14:54:54.513Z,2.39
2018-02-04T14:56:20.490Z,2.39
2018-02-04T14:57:48.255Z,2.38
2018-02-04T14:59:15.247Z,2.37
2018-02-04T15:00:41.300Z,2.35
2018-02-04T15:02:09.359Z,2.34
2018-02-04T15:03:35.254Z,2.32
2018-02-04T15:05:02.121Z,2.31
2018-02-04T15:06:28.875Z,2.30
2018-02-04T15:07:55.952Z,2.28
2018-02-04T15:09:23.940Z,2.26
2018-02-04T15:10:50.618Z,2.24
2018-02-04T15:12:17.908Z,2.22
2018-02-04T15:13:43.997Z,2.20
2018-02-04T15:15:11.977Z,2.19
2018-02-04T15:16:38.083Z,2.17
2018-02-04T15:18:06.020Z,2.17
2018-02-04T15:19:33.223Z,2.16
2018-02-04T15:20:59.869Z,2.15
2018-02-04T15:22:26.986Z,2.14
2018-02-04T15:23:53.240Z,2.13
2018-02-04T15:25:20.367Z,2.12
2018-02-04T15:26:48.529Z,2.12
2018-02-04T15:28:14.728Z,2.12
2018-02-04T15:29:42.892Z,2.13
2018-02-04T15:31:09.006Z,2.13
2018-02-04T15:32:36.103Z,2.14
2018-02-04T15:34:04.121Z,2.15
2018-02-04T15:35:30.133Z,2.15
2018-02-04T15:36:57.184Z,2.16
2018-02-04T15:38:25.459Z,2.16
2018-02-04T15:39:51.576Z,2.17
2018-02-04T15:41:19.800Z,2.16
2018-02-04T15:42:45.767Z,2.16
2018-02-04T15:44:12.892Z,2.16
2018-02-04T15:45:40.937Z,2.16
2018-02-04T15:47:07.322Z,2.15
2018-02-04T15:48:34.141Z,2.16
2018-02-04T15:50:02.423Z,2.15
2018-02-04T15:51:29.569Z,2.13
2018-02-04T15:52:56.667Z,2.12
2018-02-04T15:54:22.885Z,2.11
2018-02-04T15:55:50.642Z,2.07
2018-02-04T15:57:16.689Z,2.05
2018-02-04T15:58:44.890Z,2.03
2018-02-04T16:00:11.109Z,2.01
2018-02-04T16:01:38.803Z,1.98
2018-02-04T16:03:05.894Z,1.96
2018-02-04T16:04:32.239Z,1.95
2018-02-04T16:06:00.437Z,1.92
2018-02-04T16:07:27.522Z,1.90
2018-02-04T16:08:54.466Z,1.89
2018-02-04T16:10:21.739Z,1.89
2018-02-04T16:11:47.674Z,1.89
2018-02-04T16:13:14.690Z,1.90
2018-02-04T16:14:41.998Z,1.88
2018-02-04T16:16:09.119Z,1.87
2018-02-04T16:17:36.205Z,1.87
2018-02-04T16:19:04.137Z,1.86
2018-02-04T16:20:30.178Z,1.85
2018-02-04T16:21:58.009Z,1.84
2018-02-04T16:23:24.211Z,1.82
2018-02-04T16:24:52.480Z,1.82
2018-02-04T16:26:18.623Z,1.81
2018-02-04T16:27:45.872Z,1.80
2018-02-04T16:29:12.966Z,1.80
2018-02-04T16:30:40.039Z,1.79
2018-02-04T16:32:07.016Z,1.78
2018-02-04T16:33:35.374Z,1.78
2018-02-04T16:35:01.498Z,1.76
2018-02-04T16:36:29.760Z,1.76
2018-02-04T16:37:55.980Z,1.75
2018-02-04T16:39:23.903Z,1.76
2018-02-04T16:40:50.738Z,1.76
2018-02-04T16:42:16.938Z,1.76
2018-02-04T16:43:44.084Z,1.76
2018-02-04T16:45:11.958Z,1.76
2018-02-04T16:46:39.025Z,1.77
2018-02-04T16:48:04.959Z,1.79
2018-02-04T16:49:35.015Z,1.81
2018-02-04T16:51:00.304Z,1.81
2018-02-04T16:52:26.537Z,1.83
2018-02-04T16:53:53.675Z,1.85
2018-02-04T16:55:20.921Z,1.86
2018-02-04T16:56:47.714Z,1.87
2018-02-04T16:58:14.631Z,1.87
2018-02-04T16:59:41.652Z,1.88
2018-02-04T17:01:09.671Z,1.89
2018-02-04T17:02:36.330Z,1.90
2018-02-04T17:04:02.626Z,1.89
2018-02-04T17:05:30.701Z,1.89
2018-02-04T17:06:58.013Z,1.90
2018-02-04T17:08:24.030Z,1.90
2018-02-04T17:09:52.244Z,1.91
2018-02-04T17:11:19.332Z,1.93
2018-02-04T17:12:46.517Z,1.94
2018-02-04T17:14:12.414Z,1.94
2018-02-04T17:15:40.371Z,1.96
2018-02-04T17:17:07.460Z,1.96
2018-02-04T17:18:33.600Z,1.97
2018-02-04T17:20:01.632Z,1.97
2018-02-04T17:21:28.020Z,1.98
2018-02-04T17:22:55.939Z,2.00
2018-02-04T17:24:21.792Z,2.00
2018-02-04T17:25:49.816Z,2.01
2018-02-04T17:27:15.958Z,2.01
2018-02-04T17:28:43.911Z,2.01
2018-02-04T17:30:10.044Z,2.01
2018-02-04T17:31:37.382Z,2.02
2018-02-04T17:33:05.350Z,2.03
2018-02-04T17:34:31.359Z,2.03
2018-02-04T17:35:58.403Z,2.04
2018-02-04T17:37:26.606Z,2.03
2018-02-04T17:38:53.891Z,2.02
2018-02-04T17:40:19.926Z,2.01
2018-02-04T17:41:47.771Z,2.02
2018-02-04T17:43:14.138Z,2.02
2018-02-04T17:44:41.074Z,2.03
2018-02-04T17:46:09.103Z,2.04
2018-02-04T17:47:35.199Z,2.04
2018-02-04T17:49:03.522Z,2.04
2018-02-04T17:50:30.499Z,2.05
2018-02-04T17:51:57.883Z,2.04
2018-02-04T17:53:24.017Z,2.04
2018-02-04T17:54:52.238Z,2.03
2018-02-04T17:56:19.411Z,2.01
2018-02-04T17:57:45.616Z,2.01
2018-02-04T17:59:12.801Z,1.99
2018-02-04T18:00:40.970Z,1.99
2018-02-04T18:02:07.956Z,1.98
2018-02-04T18:03:35.183Z,1.98
2018-02-04T18:05:01.133Z,1.99
2018-02-04T18:06:28.304Z,1.97
2018-02-04T18:07:55.477Z,1.97
2018-02-04T18:09:23.509Z,1.95
2018-02-04T18:10:49.672Z,1.95
2018-02-04T18:12:16.935Z,1.93
2018-02-04T18:13:44.000Z,1.90
2018-02-04T18:15:12.100Z,1.89
2018-02-04T18:16:38.212Z,1.85
2018-02-04T18:18:06.244Z,1.79
2018-02-04T18:19:33.459Z,1.73
2018-02-04T18:21:00.573Z,1.69
2018-02-04T18:22:27.632Z,1.67
2018-02-04T18:23:54.429Z,1.65
2018-02-04T18:25:20.346Z,1.63
2018-02-04T18:26:48.350Z,1.63
2018-02-04T18:28:14.505Z,1.62
2018-02-04T18:29:42.616Z,1.60
2018-02-04T18:31:09.549Z,1.58
2018-02-04T18:32:36.341Z,1.55
2018-02-04T18:34:03.453Z,1.54
2018-02-04T18:35:30.433Z,1.54
2018-02-04T18:36:57.555Z,1.54
2018-02-04T18:38:23.930Z,1.53
2018-02-04T18:39:51.774Z,1.52
2018-02-04T18:41:18.749Z,1.51
2018-02-04T18:42:45.003Z,1.50
2018-02-04T18:44:13.106Z,1.50
2018-02-04T18:45:40.349Z,1.50
2018-02-04T18:47:07.588Z,1.50
2018-02-04T18:48:34.697Z,1.49
2018-02-04T18:50:00.621Z,1.47
2018-02-04T18:51:28.559Z,1.46
2018-02-04T18:52:54.524Z,1.44
2018-02-04T18:54:22.343Z,1.42
2018-02-04T18:55:48.396Z,1.41
2018-02-04T18:57:15.179Z,1.40
2018-02-04T18:58:42.160Z,1.37
2018-02-04T19:00:09.455Z,1.37
2018-02-04T19:01:36.406Z,1.36
2018-02-04T19:03:04.481Z,1.36
2018-02-04T19:04:31.264Z,1.35
2018-02-04T19:05:57.275Z,1.35
2018-02-04T19:07:30.513Z,1.36
2018-02-04T19:08:51.538Z,1.36
2018-02-04T19:10:19.622Z,1.38
2018-02-04T19:11:45.680Z,1.38
2018-02-04T19:13:12.558Z,1.38
2018-02-04T19:14:39.686Z,1.36
2018-02-04T19:16:07.842Z,1.34
2018-02-04T19:17:34.913Z,1.33
2018-02-04T19:19:01.894Z,1.32